Time;durP1;ratioP1;P1;durP2;ratioP2;P2;SDS_P1;SDS_P2;PMS_P1;PMS_P2;Temp;Humidity;BMP_temperature;BMP_pressure;BME280_temperature;BME280_humidity;BME280_pressure;Samples;Min_cycle;Max_cycle;Signal;HPM_P1;HPM_P2
2022/07/29 00:00:03;;;;;;;2.40;1.35;;;;;;;19.41;60.39;100748.97;1645296;85;21073;-67
2022/07/29 00:02:32;;;;;;;1.47;1.05;;;;;;;19.39;60.32;100751.09;1647384;86;21086;-66
2022/07/29 00:04:59;;;;;;;4.45;1.20;;;;;;;19.39;60.32;100749.73;1651052;85;21046;-66
2022/07/29 00:07:25;;;;;;;2.92;1.82;;;;;;;19.35;60.26;100750.73;1655591;86;21042;-66
2022/07/29 00:09:53;;;;;;;2.00;1.60;;;;;;;19.31;60.47;100749.57;1636601;86;21310;-66
2022/07/29 00:12:21;;;;;;;4.85;1.32;;;;;;;19.27;61.14;100755.16;1650174;85;21056;-66
2022/07/29 00:14:47;;;;;;;4.50;1.65;;;;;;;19.23;61.97;100753.45;1653612;85;21111;-67
2022/07/29 00:17:15;;;;;;;2.58;1.00;;;;;;;19.23;62.51;100756.16;1649139;85;21054;-66
2022/07/29 00:19:42;;;;;;;2.12;1.72;;;;;;;19.25;63.17;100754.58;1652514;85;21098;-66
2022/07/29 00:22:09;;;;;;;1.17;1.10;;;;;;;19.32;63.05;100753.09;1648393;82;21058;-68
2022/07/29 00:24:35;;;;;;;;;;;;;;;19.34;63.30;100750.43;1627305;85;21057;-67
2022/07/29 00:27:01;;;;;;;2.58;0.93;;;;;;;19.39;62.71;100755.14;1633947;86;20109;-66
2022/07/29 00:29:28;;;;;;;1.00;0.90;;;;;;;19.34;62.44;100749.62;1634850;86;21042;-67
2022/07/29 00:31:54;;;;;;;1.70;1.42;;;;;;;19.34;62.99;100745.56;1628098;86;21597;-68
2022/07/29 00:37:05;;;;;;;1.55;1.40;;;;;;;19.32;61.76;100749.03;1656781;84;20117;-67
2022/07/29 00:39:31;;;;;;;1.90;1.70;;;;;;;19.20;61.56;100739.05;1663546;84;21031;-67
2022/07/29 00:41:57;;;;;;;;;;;;;;;19.17;62.59;100738.16;1674719;84;21521;-67
2022/07/29 00:44:23;;;;;;;2.70;1.10;;;;;;;19.13;62.57;100738.88;1632052;85;20176;-66
2022/07/29 00:46:49;;;;;;;4.58;1.37;;;;;;;19.06;63.34;100747.94;1623219;86;21039;-66
2022/07/29 00:49:16;;;;;;;1.55;1.10;;;;;;;19.05;63.43;100738.71;1627852;86;21122;-66
2022/07/29 00:51:42;;;;;;;;;;;;;;;19.04;62.70;100743.80;1639947;86;21083;-67
2022/07/29 00:54:08;;;;;;;6.77;1.60;;;;;;;19.03;62.77;100742.17;1623241;87;20143;-67
2022/07/29 00:56:35;;;;;;;2.77;1.17;;;;;;;18.99;64.11;100742.36;1661480;85;21497;-66
2022/07/29 00:59:01;;;;;;;1.70;1.25;;;;;;;19.02;64.46;100741.36;1679073;84;21066;-66
2022/07/29 01:01:28;;;;;;;1.47;1.37;;;;;;;19.08;64.48;100733.35;1639996;85;21114;-66
2022/07/29 01:03:56;;;;;;;1.62;1.35;;;;;;;19.13;63.27;100732.94;1637929;86;21109;-67
2022/07/29 01:06:23;;;;;;;3.37;1.00;;;;;;;19.12;63.67;100735.87;1633301;86;21057;-67
2022/07/29 01:08:51;;;;;;;1.57;1.55;;;;;;;18.79;63.25;100685.41;1628760;86;21093;-68
2022/07/29 01:11:18;;;;;;;2.70;1.35;;;;;;;19.03;62.93;100736.77;1627453;86;21084;-68
2022/07/29 01:13:47;;;;;;;2.75;1.30;;;;;;;18.99;63.98;100736.42;1615175;88;21026;-67
2022/07/29 01:16:25;;;;;;;2.58;2.10;;;;;;;18.99;64.25;100732.91;1638556;86;21080;-66
2022/07/29 01:18:57;;;;;;;1.55;1.32;;;;;;;19.02;64.50;100731.06;1621722;87;21041;-67
2022/07/29 01:21:51;;;;;;;1.70;0.75;;;;;;;19.02;64.49;100731.91;1631680;88;21578;-68
2022/07/29 01:24:49;;;;;;;2.10;1.62;;;;;;;18.97;63.64;100734.48;1627507;87;21149;-66
2022/07/29 01:27:33;;;;;;;2.02;1.82;;;;;;;18.91;64.52;100735.42;1641308;85;21695;-66
2022/07/29 01:30:02;;;;;;;7.80;6.28;;;;;;;18.91;63.92;100739.98;1649171;84;21041;-67
2022/07/29 01:32:33;;;;;;;3.95;3.58;;;;;;;18.90;64.27;100736.47;1675531;84;21030;-68
2022/07/29 01:35:06;;;;;;;1.90;1.80;;;;;;;18.88;64.26;100736.42;1680345;84;21143;-67
2022/07/29 01:38:10;;;;;;;1.87;1.70;;;;;;;18.83;63.48;100738.45;1682123;84;21657;-66
2022/07/29 01:40:48;;;;;;;2.90;1.57;;;;;;;18.77;64.32;100734.77;1666300;86;21022;-65
2022/07/29 01:43:21;;;;;;;1.85;1.67;;;;;;;18.74;64.50;100737.96;1667530;85;21049;-67
2022/07/29 01:46:04;;;;;;;1.65;1.45;;;;;;;18.70;65.32;100742.16;1676606;83;21485;-66
2022/07/29 01:48:48;;;;;;;4.03;1.75;;;;;;;18.76;65.34;100745.80;1683082;84;21081;-67
2022/07/29 01:51:34;;;;;;;1.32;0.95;;;;;;;18.79;64.19;100746.70;1681291;84;21033;-66
2022/07/29 01:54:18;;;;;;;1.25;1.15;;;;;;;18.73;64.61;100741.70;1675939;84;21049;-68
2022/07/29 01:56:49;;;;;;;5.25;1.55;;;;;;;18.66;65.26;100728.83;1682145;83;21029;-67
2022/07/29 01:59:18;;;;;;;3.77;2.25;;;;;;;18.73;64.22;100739.00;1651047;84;21066;-67
2022/07/29 02:01:49;;;;;;;1.77;1.57;;;;;;;18.65;62.58;100742.86;1682285;84;20981;-67
2022/07/29 02:04:18;;;;;;;2.85;2.02;;;;;;;18.51;62.21;100741.41;1663087;85;21647;-67
2022/07/29 02:06:48;;;;;;;4.03;2.25;;;;;;;18.38;62.23;100750.52;1668148;84;21073;-67
2022/07/29 02:09:17;;;;;;;2.17;1.98;;;;;;;18.26;62.33;100745.09;1673556;85;21667;-67
2022/07/29 02:11:48;;;;;;;2.33;2.17;;;;;;;18.17;62.53;100745.66;1668921;85;21109;-67
2022/07/29 02:14:19;;;;;;;3.15;1.65;;;;;;;18.07;62.84;100747.02;1669667;85;21057;-66
2022/07/29 02:16:50;;;;;;;5.28;2.37;;;;;;;17.98;63.14;100749.73;1658969;85;21116;-67
2022/07/29 02:19:22;;;;;;;3.35;1.98;;;;;;;17.89;65.05;100748.39;1674569;85;21033;-66
2022/07/29 02:21:53;;;;;;;2.37;1.75;;;;;;;17.85;64.24;100755.30;1652580;85;21628;-66
2022/07/29 02:24:24;;;;;;;2.47;2.27;;;;;;;17.77;65.08;100751.53;1620790;85;21027;-66
2022/07/29 02:26:55;;;;;;;2.45;1.95;;;;;;;17.71;64.83;100754.61;1621582;86;21042;-67
2022/07/29 02:29:25;;;;;;;3.85;2.60;;;;;;;17.66;65.00;100757.96;1633765;87;21076;-67
2022/07/29 02:31:52;;;;;;;6.75;2.27;;;;;;;17.61;65.02;100748.41;1628655;87;21117;-68
2022/07/29 02:34:22;;;;;;;2.52;2.33;;;;;;;17.58;66.71;100752.88;1650835;85;21046;-66
2022/07/29 02:36:49;;;;;;;3.42;2.10;;;;;;;17.60;67.15;100750.78;1679145;84;21027;-66
2022/07/29 02:39:18;;;;;;;2.30;2.10;;;;;;;17.60;66.88;100749.97;1665799;84;21038;-66
2022/07/29 02:42:02;;;;;;;9.73;2.25;;;;;;;17.66;67.89;100749.06;1680836;84;21506;-67
2022/07/29 02:44:28;;;;;;;3.83;1.40;;;;;;;17.76;69.63;100748.53;1655551;85;21054;-66
2022/07/29 02:47:20;;;;;;;5.53;1.72;;;;;;;17.88;70.75;100744.88;1667666;84;21063;-67
2022/07/29 02:50:20;;;;;;;1.95;1.85;;;;;;;18.00;68.04;100757.60;1650585;85;21135;-67
2022/07/29 02:53:01;;;;;;;2.75;1.92;;;;;;;17.94;66.53;100753.94;1661542;85;21016;-67
2022/07/29 02:55:46;;;;;;;5.85;1.70;;;;;;;17.86;66.16;100750.21;1643964;85;21051;-67
2022/07/29 02:58:22;;;;;;;2.15;2.02;;;;;;;17.82;67.27;100747.11;1658263;85;21162;-69
2022/07/29 03:00:51;;;;;;;2.35;2.05;;;;;;;17.92;69.49;100756.05;1655578;84;21020;-66
2022/07/29 03:03:21;;;;;;;6.20;2.55;;;;;;;18.11;69.52;100756.02;1645360;86;21558;-67
2022/07/29 03:05:47;;;;;;;4.25;2.62;;;;;;;18.31;68.23;100757.92;1644731;86;21065;-67
2022/07/29 03:08:16;;;;;;;4.12;2.00;;;;;;;18.55;66.86;100763.38;1637818;86;21100;-68
2022/07/29 03:11:46;;;;;;;7.72;2.77;;;;;;;19.03;65.34;100757.84;1794303;77;22949;-67
2022/07/29 03:14:12;;;;;;;3.60;1.60;;;;;;;19.41;63.37;100763.84;1728092;81;21069;-67
2022/07/29 03:16:39;;;;;;;6.72;1.87;;;;;;;19.85;62.01;100761.54;1728235;81;21061;-69
2022/07/29 03:19:08;;;;;;;4.33;1.95;;;;;;;20.29;60.33;100763.22;1726390;83;21096;-67
2022/07/29 03:21:34;;;;;;;2.25;2.05;;;;;;;20.73;60.08;100764.82;1727882;81;21046;-68
2022/07/29 03:24:01;;;;;;;1.87;1.77;;;;;;;21.22;59.59;100763.41;1717273;83;20994;-68
2022/07/29 03:26:28;;;;;;;2.90;1.90;;;;;;;21.71;59.02;100763.56;1716545;83;21030;-68
2022/07/29 03:28:55;;;;;;;4.12;2.30;;;;;;;22.34;55.98;100762.14;1727225;82;21114;-70
2022/07/29 03:31:22;;;;;;;9.25;2.55;;;;;;;22.86;53.47;100757.15;1714862;83;21029;-68
2022/07/29 03:33:48;;;;;;;4.97;2.42;;;;;;;23.23;51.67;100759.08;1720669;82;20970;-69
2022/07/29 03:36:15;;;;;;;3.45;2.02;;;;;;;23.50;50.63;100755.67;1743222;82;21093;-68
2022/07/29 03:38:44;;;;;;;2.10;1.72;;;;;;;23.80;50.17;100762.92;1751541;81;21582;-68
2022/07/29 03:41:13;;;;;;;4.83;2.02;;;;;;;24.06;48.90;100761.91;1736623;81;21080;-67
2022/07/29 03:43:42;;;;;;;4.37;1.70;;;;;;;24.31;48.67;100756.25;1750485;82;21089;-68
2022/07/29 03:46:13;;;;;;;2.92;2.05;;;;;;;24.59;47.52;100761.76;1750602;81;20990;-67
2022/07/29 03:48:44;;;;;;;4.80;1.62;;;;;;;24.86;47.10;100762.87;1753072;82;21037;-69
2022/07/29 03:51:13;;;;;;;2.85;1.32;;;;;;;25.19;46.35;100761.19;1756981;82;20986;-69
2022/07/29 03:53:40;;;;;;;6.00;1.95;;;;;;;25.49;45.76;100764.97;1755978;81;20994;-68
2022/07/29 03:56:09;;;;;;;5.08;2.75;;;;;;;25.73;45.05;100766.48;1755132;82;21323;-68
2022/07/29 03:58:37;;;;;;;4.33;2.17;;;;;;;25.98;44.54;100769.70;1756758;82;21002;-68
2022/07/29 04:01:06;;;;;;;4.55;2.92;;;;;;;26.25;43.44;100767.89;1728281;82;21084;-68
2022/07/29 04:03:33;;;;;;;3.33;2.05;;;;;;;26.52;42.59;100764.72;1723745;83;20974;-69
2022/07/29 04:06:02;;;;;;;4.50;2.08;;;;;;;26.79;42.00;100761.50;1718958;83;21098;-69
2022/07/29 04:08:30;;;;;;;3.85;1.77;;;;;;;27.08;41.53;100759.88;1725478;83;20972;-69
2022/07/29 04:10:57;;;;;;;4.87;2.10;;;;;;;27.35;40.71;100761.53;1719740;83;21062;-70
2022/07/29 04:13:25;;;;;;;3.72;2.33;;;;;;;27.55;40.66;100753.62;1677831;83;21034;-70
2022/07/29 04:15:51;;;;;;;4.75;2.80;;;;;;;27.77;40.10;100760.49;1691991;84;21001;-69
2022/07/29 04:18:18;;;;;;;6.20;2.50;;;;;;;27.97;38.84;100759.42;1690626;83;21475;-69
2022/07/29 04:20:45;;;;;;;4.67;2.95;;;;;;;28.22;37.80;100760.16;1678154;83;21066;-69
2022/07/29 04:23:12;;;;;;;6.20;2.75;;;;;;;28.44;37.09;100759.56;1692760;83;21086;-71
2022/07/29 04:25:40;;;;;;;3.90;1.95;;;;;;;28.67;35.86;100763.33;1715773;83;21106;-70
2022/07/29 04:28:09;;;;;;;2.62;2.20;;;;;;;28.81;35.17;100767.50;1713546;83;21116;-68
2022/07/29 04:30:38;;;;;;;4.92;2.42;;;;;;;28.78;35.18;100761.23;1707553;83;21045;-68
2022/07/29 04:33:07;;;;;;;3.20;2.30;;;;;;;28.73;34.46;100760.78;1711747;83;21073;-69
2022/07/29 04:35:37;;;;;;;6.65;2.02;;;;;;;28.48;34.94;100768.81;1687556;85;21500;-70
2022/07/29 04:38:06;;;;;;;5.45;2.15;;;;;;;28.21;34.23;100757.18;1684289;85;21034;-68
2022/07/29 04:40:33;;;;;;;6.97;3.00;;;;;;;27.95;34.25;100749.31;1687521;85;21102;-68
2022/07/29 04:43:02;;;;;;;7.00;2.25;;;;;;;27.81;35.29;100745.66;1688618;85;21049;-69
2022/07/29 04:45:28;;;;;;;3.35;1.10;;;;;;;27.82;34.35;100751.38;1684124;84;21026;-69
2022/07/29 04:47:55;;;;;;;7.97;1.37;;;;;;;27.85;34.31;100744.77;1742041;82;21106;-68
2022/07/29 04:50:22;;;;;;;1.52;1.30;;;;;;;27.95;34.20;100749.31;1741726;81;21109;-68
2022/07/29 04:52:48;;;;;;;6.87;1.02;;;;;;;28.13;34.03;100751.25;1734278;81;21026;-69
2022/07/29 04:55:18;;;;;;;5.67;1.42;;;;;;;28.42;33.48;100742.60;1744073;81;21487;-71
2022/07/29 04:57:45;;;;;;;3.45;0.95;;;;;;;28.78;32.82;100748.89;1711501;82;21057;-72
2022/07/29 05:00:12;;;;;;;3.47;1.45;;;;;;;29.05;31.67;100742.66;1715648;82;21132;-70
2022/07/29 05:02:39;;;;;;;6.22;1.70;;;;;;;28.97;31.58;100740.59;1687938;85;21065;-72
2022/07/29 05:05:08;;;;;;;3.30;0.90;;;;;;;28.67;31.94;100744.97;1688388;83;21101;-69
2022/07/29 05:07:35;;;;;;;5.90;1.70;;;;;;;28.47;32.21;100746.64;1684155;83;21105;-70
2022/07/29 05:10:04;;;;;;;5.25;0.75;;;;;;;28.52;32.40;100746.03;1687883;85;20994;-66
2022/07/29 05:12:31;;;;;;;2.92;0.40;;;;;;;28.68;31.29;100752.63;1688036;83;20975;-70
2022/07/29 05:14:58;;;;;;;1.82;0.45;;;;;;;28.68;31.30;100743.03;1689287;83;21105;-69
2022/07/29 05:17:25;;;;;;;2.30;0.40;;;;;;;28.21;31.49;100747.59;1688541;83;21043;-70
2022/07/29 05:19:51;;;;;;;3.70;0.42;;;;;;;27.63;32.76;100749.42;1689240;85;21182;-69
2022/07/29 05:22:20;;;;;;;1.98;1.75;;;;;;;27.16;33.72;100745.02;1688764;82;21026;-69
2022/07/29 05:24:47;;;;;;;14.78;7.78;;;;;;;26.72;33.72;100744.61;1688756;85;21128;-68
2022/07/29 05:27:14;;;;;;;8.55;5.55;;;;;;;26.27;34.27;100748.48;1684547;84;21593;-68
2022/07/29 05:29:40;;;;;;;5.05;1.90;;;;;;;25.96;35.30;100751.41;1689528;83;21112;-66
2022/07/29 05:32:07;;;;;;;4.47;1.20;;;;;;;25.75;35.63;100758.31;1688228;83;21178;-68
2022/07/29 05:34:33;;;;;;;3.05;1.10;;;;;;;25.67;35.66;100758.06;1703622;82;21037;-66
2022/07/29 05:37:01;;;;;;;2.08;0.68;;;;;;;25.80;36.01;100755.53;1712455;82;21023;-68
2022/07/29 05:39:30;;;;;;;2.98;0.68;;;;;;;25.97;35.64;100757.12;1709301;82;21109;-66
2022/07/29 05:41:56;;;;;;;1.52;0.30;;;;;;;26.13;34.19;100764.70;1711588;83;21133;-66
2022/07/29 05:44:25;;;;;;;2.72;0.20;;;;;;;26.20;34.47;100766.55;1713491;82;21058;-68
2022/07/29 05:46:51;;;;;;;2.52;0.30;;;;;;;26.48;33.82;100759.52;1656186;85;21151;-68
2022/07/29 05:49:19;;;;;;;1.35;0.37;;;;;;;26.75;33.17;100762.37;1648888;86;21079;-66
2022/07/29 05:51:48;;;;;;;0.42;0.15;;;;;;;26.92;32.82;100761.39;1649100;85;21043;-68
2022/07/29 05:54:16;;;;;;;1.05;0.20;;;;;;;27.10;32.87;100765.31;1649102;85;21035;-68
2022/07/29 05:56:43;;;;;;;1.98;0.60;;;;;;;27.41;32.72;100760.09;1648567;85;21002;-67
2022/07/29 05:59:09;;;;;;;1.32;0.33;;;;;;;27.74;31.83;100767.91;1646960;85;21065;-69
2022/07/29 06:01:39;;;;;;;1.00;0.20;;;;;;;27.95;31.83;100760.27;1644587;85;21099;-67
2022/07/29 06:04:03;;;;;;;2.47;0.20;;;;;;;28.22;31.15;100767.02;1655368;85;21137;-71
2022/07/29 06:06:32;;;;;;;1.27;0.55;;;;;;;28.44;30.86;100756.82;1647691;85;21043;-72
2022/07/29 06:09:01;;;;;;;0.93;0.40;;;;;;;28.67;30.55;100766.07;1648991;85;21114;-68
2022/07/29 06:11:27;;;;;;;2.58;0.35;;;;;;;28.77;29.80;100774.14;1630112;85;21071;-70
2022/07/29 06:13:53;;;;;;;1.67;0.30;;;;;;;28.88;29.99;100771.48;1660634;84;21104;-70
2022/07/29 06:16:21;;;;;;;0.20;0.10;;;;;;;29.00;29.30;100775.67;1638974;87;21074;-69
2022/07/29 06:18:47;;;;;;;2.15;0.20;;;;;;;28.93;29.11;100767.28;1661453;84;21043;-69
2022/07/29 06:21:15;;;;;;;3.33;0.40;;;;;;;28.99;30.08;100764.42;1639220;86;21054;-74
2022/07/29 06:23:41;;;;;;;1.52;0.30;;;;;;;29.16;28.69;100766.63;1644688;85;21049;-71
2022/07/29 06:26:08;;;;;;;2.95;0.50;;;;;;;29.18;28.63;100764.38;1651559;85;21523;-69
2022/07/29 06:28:36;;;;;;;0.65;0.20;;;;;;;29.14;29.44;100766.95;1655855;85;21051;-71
2022/07/29 06:31:02;;;;;;;3.08;0.33;;;;;;;29.29;28.98;100765.82;1655210;85;21046;-70
2022/07/29 06:33:28;;;;;;;1.52;0.30;;;;;;;29.56;28.76;100760.91;1652799;85;21065;-66
2022/07/29 06:35:56;;;;;;;0.45;0.10;;;;;;;29.61;27.25;100765.47;1667801;85;21022;-69
2022/07/29 06:38:23;;;;;;;0.75;0.25;;;;;;;29.42;28.48;100762.83;1659769;85;21010;-69
2022/07/29 06:40:59;;;;;;;0.72;0.13;;;;;;;29.31;28.37;100757.55;1665419;85;21058;-68
2022/07/29 06:43:37;;;;;;;0.70;0.10;;;;;;;29.07;27.65;100759.06;1666710;85;21129;-70
2022/07/29 06:46:07;;;;;;;0.53;0.10;;;;;;;28.93;27.46;100767.28;1637469;85;21007;-67
2022/07/29 06:48:38;;;;;;;1.77;0.30;;;;;;;28.89;28.51;100755.83;1680583;83;21536;-69
2022/07/29 06:51:06;;;;;;;2.95;0.28;;;;;;;28.85;29.40;100763.84;1678309;83;21048;-69
2022/07/29 06:53:33;;;;;;;1.98;0.30;;;;;;;28.86;29.30;100757.82;1677924;83;21129;-69
2022/07/29 06:56:01;;;;;;;2.17;0.13;;;;;;;28.90;28.41;100761.59;1674847;83;21086;-71
2022/07/29 06:58:29;;;;;;;1.45;0.10;;;;;;;28.78;28.78;100758.49;1682677;83;21062;-70
2022/07/29 07:00:58;;;;;;;2.00;0.30;;;;;;;28.85;28.91;100759.73;1688340;82;21533;-68
2022/07/29 07:03:26;;;;;;;1.60;0.30;;;;;;;29.22;28.62;100754.45;1713338;82;21030;-71
2022/07/29 07:05:55;;;;;;;4.33;0.37;;;;;;;29.54;28.89;100754.10;1706866;82;21021;-70
2022/07/29 07:08:23;;;;;;;2.67;0.40;;;;;;;29.62;28.01;100752.80;1706828;82;21117;-69
2022/07/29 07:10:51;;;;;;;1.27;0.20;;;;;;;29.70;28.10;100756.77;1706884;82;21074;-69
2022/07/29 07:13:19;;;;;;;1.30;0.10;;;;;;;29.75;28.23;100755.89;1665313;83;21011;-70
2022/07/29 07:15:48;;;;;;;0.65;0.20;;;;;;;29.78;27.80;100755.25;1660199;85;21088;-69
2022/07/29 07:18:16;;;;;;;1.15;0.30;;;;;;;29.84;28.14;100754.05;1660701;85;21514;-70
2022/07/29 07:20:43;;;;;;;3.12;0.30;;;;;;;29.86;27.37;100751.23;1661315;85;21582;-71
2022/07/29 07:23:11;;;;;;;1.15;0.20;;;;;;;29.77;27.67;100748.15;1667823;85;21076;-69
2022/07/29 07:25:37;;;;;;;2.90;0.50;;;;;;;29.55;28.38;100752.40;1678906;85;21088;-70
2022/07/29 07:28:04;;;;;;;0.70;0.20;;;;;;;29.42;28.12;100763.66;1680038;85;21050;-69
2022/07/29 07:30:30;;;;;;;1.85;0.30;;;;;;;29.46;28.38;100761.09;1687951;85;20998;-69
2022/07/29 07:32:57;;;;;;;8.38;1.05;;;;;;;29.46;28.59;100765.22;1685309;83;21093;-69
2022/07/29 07:35:23;;;;;;;1.80;0.37;;;;;;;29.39;28.88;100762.89;1653541;85;21513;-69
2022/07/29 07:37:50;;;;;;;2.33;0.40;;;;;;;29.39;28.52;100763.45;1640311;85;21380;-70
2022/07/29 07:40:17;;;;;;;0.68;0.33;;;;;;;29.10;29.19;100770.83;1658729;86;21022;-70
2022/07/29 07:42:43;;;;;;;1.20;0.10;;;;;;;28.83;29.19;100768.81;1658505;86;21139;-69
2022/07/29 07:45:11;;;;;;;2.12;0.50;;;;;;;28.58;29.33;100765.15;1649639;83;21061;-69
2022/07/29 07:47:39;;;;;;;3.65;0.40;;;;;;;28.40;29.74;100771.67;1646032;85;21061;-68
2022/07/29 07:50:10;;;;;;;1.52;0.50;;;;;;;28.28;30.39;100761.17;1646345;85;21058;-69
2022/07/29 07:52:53;;;;;;;3.33;0.30;;;;;;;28.24;30.45;100768.37;1644669;85;21018;-69
2022/07/29 07:55:22;;;;;;;5.95;0.30;;;;;;;28.20;30.53;100763.76;1645541;83;21522;-69
2022/07/29 07:57:48;;;;;;;1.95;0.37;;;;;;;28.14;31.35;100764.39;1653673;84;21645;-69
2022/07/29 08:00:16;;;;;;;3.08;0.60;;;;;;;28.13;31.90;100762.77;1670612;84;21609;-68
2022/07/29 08:02:44;;;;;;;2.45;0.20;;;;;;;28.11;31.58;100764.44;1647700;86;21629;-69
2022/07/29 08:05:16;;;;;;;1.22;0.28;;;;;;;28.05;31.94;100764.79;1647155;85;21081;-68
2022/07/29 08:07:43;;;;;;;0.70;0.37;;;;;;;28.04;32.00;100768.09;1646879;86;21078;-69
2022/07/29 08:10:13;;;;;;;1.57;0.40;;;;;;;28.08;32.24;100766.39;1645717;86;21132;-67
2022/07/29 08:12:39;;;;;;;2.33;0.30;;;;;;;28.12;32.09;100767.45;1678776;84;21096;-69
2022/07/29 08:15:08;;;;;;;4.12;0.93;;;;;;;28.10;31.85;100772.95;1697146;84;21053;-70
2022/07/29 08:17:35;;;;;;;5.97;0.47;;;;;;;28.06;32.27;100774.09;1690070;84;21030;-70
2022/07/29 08:20:02;;;;;;;1.30;0.57;;;;;;;28.07;32.20;100767.52;1692067;84;21538;-71
2022/07/29 08:22:30;;;;;;;0.88;0.47;;;;;;;28.12;32.13;100767.45;1689949;82;21583;-70
2022/07/29 08:24:58;;;;;;;0.72;0.45;;;;;;;28.12;31.82;100765.24;1678139;84;21058;-70
2022/07/29 08:27:26;;;;;;;1.27;0.23;;;;;;;28.08;31.93;100763.64;1693953;84;21537;-68
2022/07/29 08:29:52;;;;;;;1.20;0.37;;;;;;;28.06;32.17;100767.80;1698662;84;21034;-68
2022/07/29 08:32:18;;;;;;;6.62;3.55;;;;;;;28.05;32.55;100764.25;1692588;84;21049;-69
2022/07/29 08:34:46;;;;;;;3.60;0.72;;;;;;;28.07;32.95;100767.52;1694219;82;21045;-70
2022/07/29 08:37:12;;;;;;;1.12;1.12;;;;;;;28.02;32.14;100761.29;1688036;83;21045;-71
2022/07/29 08:39:41;;;;;;;3.65;0.75;;;;;;;27.95;32.67;100758.37;1694363;83;21061;-69
2022/07/29 08:42:09;;;;;;;3.55;0.60;;;;;;;27.99;32.57;100757.76;1695994;83;21110;-69
2022/07/29 08:44:36;;;;;;;1.85;0.40;;;;;;;28.00;32.60;100757.47;1681906;83;21022;-69
2022/07/29 08:47:04;;;;;;;2.10;0.85;;;;;;;27.94;32.19;100761.39;1695157;83;21094;-69
2022/07/29 08:49:35;;;;;;;2.87;1.42;;;;;;;27.82;32.54;100752.75;1688016;84;21105;-69
2022/07/29 08:52:03;;;;;;;4.22;0.40;;;;;;;27.75;33.02;100753.13;1700323;84;20966;-70
2022/07/29 08:54:31;;;;;;;1.07;0.40;;;;;;;27.81;32.39;100756.05;1697018;84;21059;-69
2022/07/29 08:56:59;;;;;;;1.65;0.98;;;;;;;27.82;32.48;100759.59;1697348;83;21051;-70
2022/07/29 08:59:29;;;;;;;2.85;0.70;;;;;;;27.81;32.62;100756.61;1696048;83;21090;-69
2022/07/29 09:01:59;;;;;;;0.98;0.40;;;;;;;27.84;32.37;100758.75;1690236;83;21049;-70
2022/07/29 09:04:30;;;;;;;1.62;0.62;;;;;;;27.85;32.41;100756.28;1696888;84;21140;-70
2022/07/29 09:07:01;;;;;;;3.70;0.40;;;;;;;27.88;32.89;100755.70;1684578;84;21076;-71
2022/07/29 09:09:27;;;;;;;1.80;0.40;;;;;;;27.91;32.89;100753.76;1692538;84;21049;-67
2022/07/29 09:11:54;;;;;;;3.55;0.33;;;;;;;27.95;32.14;100753.42;1694832;82;21514;-68
2022/07/29 09:14:21;;;;;;;0.93;0.53;;;;;;;27.97;32.03;100756.68;1687172;84;21017;-70
2022/07/29 09:16:54;;;;;;;0.93;0.57;;;;;;;27.98;31.87;100754.78;1690625;84;21058;-69
2022/07/29 09:19:34;;;;;;;3.45;0.50;;;;;;;28.01;32.08;100751.42;1670948;85;21864;-71
2022/07/29 09:22:05;;;;;;;0.60;0.50;;;;;;;28.09;32.34;100750.22;1695837;83;21568;-70
2022/07/29 09:24:50;;;;;;;0.37;0.30;;;;;;;28.13;32.07;100755.36;1700512;84;22093;-69
2022/07/29 09:27:26;;;;;;;3.40;0.37;;;;;;;28.12;32.03;100752.37;1698076;84;21450;-70
2022/07/29 09:30:04;;;;;;;0.62;0.20;;;;;;;28.07;31.93;100758.48;1696409;84;21057;-68
2022/07/29 09:32:34;;;;;;;1.05;0.50;;;;;;;27.89;31.91;100758.16;1693972;84;21098;-70
2022/07/29 09:35:23;;;;;;;1.87;1.22;;;;;;;27.85;32.30;100749.44;1671788;82;21054;-69
2022/07/29 09:37:51;;;;;;;2.65;0.60;;;;;;;27.92;32.40;100744.44;1703308;82;21024;-69
2022/07/29 09:40:22;;;;;;;2.58;0.65;;;;;;;28.02;32.63;100751.14;1701797;82;21108;-69
2022/07/29 09:42:50;;;;;;;3.70;0.98;;;;;;;27.82;32.25;100702.08;1708872;82;21223;-69
2022/07/29 09:45:31;;;;;;;1.15;0.70;;;;;;;28.20;32.18;100745.94;1718164;82;21567;-70
2022/07/29 09:48:17;;;;;;;0.82;0.50;;;;;;;28.18;32.66;100749.54;1702799;83;21087;-70
2022/07/29 09:50:48;;;;;;;0.40;0.40;;;;;;;28.20;32.74;100749.52;1696164;82;21127;-69
2022/07/29 09:53:36;;;;;;;0.88;0.53;;;;;;;28.28;32.58;100746.10;1711066;82;21559;-69
2022/07/29 09:56:05;;;;;;;1.02;0.30;;;;;;;28.34;31.96;100749.58;1709802;82;20967;-71
2022/07/29 09:58:34;;;;;;;4.95;0.50;;;;;;;28.23;31.70;100748.10;1704803;82;21390;-67
2022/07/29 10:01:01;;;;;;;0.82;0.45;;;;;;;28.12;32.01;100755.66;1708702;82;21039;-69
2022/07/29 10:03:27;;;;;;;1.40;0.42;;;;;;;28.07;32.36;100750.27;1715196;82;21051;-68
2022/07/29 10:06:10;;;;;;;3.00;0.75;;;;;;;28.06;32.00;100750.80;1711440;82;21126;-67
2022/07/29 10:08:41;;;;;;;1.25;0.95;;;;;;;27.95;31.48;100751.52;1716393;82;21543;-71
2022/07/29 10:11:17;;;;;;;5.45;0.95;;;;;;;27.81;31.73;100745.66;1715937;82;21012;-69
2022/07/29 10:13:48;;;;;;;5.05;0.93;;;;;;;27.77;31.98;100741.33;1716254;83;21031;-69
2022/07/29 10:16:16;;;;;;;2.27;1.10;;;;;;;27.83;32.07;100735.22;1716517;83;21017;-68
2022/07/29 10:18:44;;;;;;;1.27;0.60;;;;;;;27.90;32.02;100737.88;1702984;83;21030;-70
2022/07/29 10:21:13;;;;;;;0.40;0.30;;;;;;;28.00;32.27;100735.55;1716807;83;21157;-68
2022/07/29 10:23:41;;;;;;;2.60;0.40;;;;;;;28.14;32.43;100740.56;1700765;83;21022;-69
2022/07/29 10:26:10;;;;;;;2.45;1.40;;;;;;;28.24;32.00;100739.59;1696020;84;21010;-68
2022/07/29 10:28:39;;;;;;;1.25;0.72;;;;;;;28.38;32.25;100734.72;1680538;84;21027;-71
2022/07/29 10:31:13;;;;;;;2.83;0.30;;;;;;;28.47;32.13;100728.81;1696785;84;21109;-70
2022/07/29 10:33:57;;;;;;;2.27;1.47;;;;;;;28.56;31.90;100729.80;1677082;84;21051;-70
2022/07/29 10:37:04;;;;;;;2.20;1.65;;;;;;;28.61;31.95;100728.88;1668031;85;21127;-70
2022/07/29 10:39:54;;;;;;;3.60;0.85;;;;;;;28.62;31.48;100727.78;1683120;85;21000;-70
2022/07/29 10:42:24;;;;;;;2.33;0.68;;;;;;;28.54;31.47;100721.06;1676623;84;21098;-69
2022/07/29 10:44:52;;;;;;;5.67;0.95;;;;;;;28.48;31.54;100719.47;1677545;84;21090;-69
2022/07/29 10:47:28;;;;;;;3.42;0.42;;;;;;;28.43;31.89;100719.57;1682596;85;20959;-69
2022/07/29 10:50:00;;;;;;;2.47;0.40;;;;;;;28.38;31.76;100721.82;1684074;84;21090;-70
2022/07/29 10:52:48;;;;;;;2.47;0.45;;;;;;;28.38;32.25;100714.97;1683660;84;21153;-70
2022/07/29 10:55:46;;;;;;;1.37;0.20;;;;;;;28.36;32.01;100713.08;1676417;84;22265;-70
2022/07/29 10:58:17;;;;;;;3.27;0.60;;;;;;;28.37;32.13;100721.58;1684484;84;21084;-71
2022/07/29 11:00:48;;;;;;;0.70;0.42;;;;;;;28.44;32.16;100717.88;1679913;84;21082;-70
2022/07/29 11:03:51;;;;;;;1.40;0.60;;;;;;;28.51;31.93;100718.87;1675662;84;21114;-71
2022/07/29 11:06:17;;;;;;;1.75;0.90;;;;;;;28.48;32.01;100721.67;1672797;85;21308;-69
2022/07/29 11:08:44;;;;;;;2.87;1.47;;;;;;;28.36;32.12;100717.20;1676910;85;21518;-70
2022/07/29 11:11:26;;;;;;;0.60;0.60;;;;;;;28.28;32.20;100716.52;1679394;84;21058;-70
2022/07/29 11:13:54;;;;;;;4.37;0.82;;;;;;;28.29;32.16;100720.87;1673126;84;21111;-69
2022/07/29 11:16:22;;;;;;;3.55;1.50;;;;;;;28.29;31.85;100712.11;1695990;84;21062;-69
2022/07/29 11:19:15;;;;;;;1.12;0.85;;;;;;;28.33;31.93;100708.19;1694603;84;21123;-69
2022/07/29 11:21:49;;;;;;;4.50;1.22;;;;;;;28.37;32.26;100706.50;1693902;84;21418;-67
2022/07/29 11:24:27;;;;;;;1.67;1.20;;;;;;;28.42;32.05;100710.51;1685959;84;21118;-71
2022/07/29 11:27:16;;;;;;;3.02;1.17;;;;;;;28.48;32.12;100704.38;1697330;84;21004;-68
2022/07/29 11:30:03;;;;;;;3.42;0.85;;;;;;;28.54;32.12;100704.61;1697279;84;21090;-69
2022/07/29 11:32:43;;;;;;;6.28;1.10;;;;;;;28.52;32.14;100700.79;1685333;84;21061;-69
2022/07/29 11:35:21;;;;;;;0.80;0.40;;;;;;;28.53;31.85;100703.77;1686664;84;21046;-69
2022/07/29 11:38:24;;;;;;;1.27;0.68;;;;;;;28.56;31.85;100701.54;1679326;84;21165;-69
2022/07/29 11:41:20;;;;;;;3.30;0.60;;;;;;;28.58;31.72;100702.08;1696424;84;21054;-69
2022/07/29 11:43:51;;;;;;;3.42;1.00;;;;;;;28.57;31.90;100697.70;1697413;84;21150;-71
2022/07/29 11:46:50;;;;;;;2.58;0.82;;;;;;;28.52;32.13;100700.79;1696093;84;21062;-71